sensor_id;sensor_type;location;lat;lon;timestamp;P1;durP1;ratioP1;P2;durP2;ratioP2
75548;SDS011;64133;56.002;37.208;2023-01-28T00:03:13;1.37;;;1.05;;
75548;SDS011;64133;56.002;37.208;2023-01-28T00:08:21;1.87;;;0.68;;
75548;SDS011;64133;56.002;37.208;2023-01-28T00:13:26;1.57;;;1.07;;
75548;SDS011;64133;56.002;37.208;2023-01-28T00:18:31;1.85;;;0.80;;
75548;SDS011;64133;56.002;37.208;2023-01-28T00:23:36;1.25;;;0.72;;
75548;SDS011;64133;56.002;37.208;2023-01-28T00:28:40;1.65;;;0.98;;
75548;SDS011;64133;56.002;37.208;2023-01-28T00:33:46;2.12;;;0.70;;
75548;SDS011;64133;56.002;37.208;2023-01-28T00:38:49;1.47;;;0.78;;
75548;SDS011;64133;56.002;37.208;2023-01-28T00:43:54;1.70;;;0.60;;
75548;SDS011;64133;56.002;37.208;2023-01-28T00:48:59;1.77;;;0.80;;
75548;SDS011;64133;56.002;37.208;2023-01-28T00:54:04;1.90;;;1.10;;
75548;SDS011;64133;56.002;37.208;2023-01-28T00:59:09;1.55;;;0.85;;
75548;SDS011;64133;56.002;37.208;2023-01-28T01:04:13;1.42;;;0.60;;
75548;SDS011;64133;56.002;37.208;2023-01-28T01:09:18;2.55;;;1.12;;
75548;SDS011;64133;56.002;37.208;2023-01-28T01:14:22;1.85;;;0.85;;
75548;SDS011;64133;56.002;37.208;2023-01-28T01:19:27;1.75;;;0.65;;
75548;SDS011;64133;56.002;37.208;2023-01-28T01:24:32;1.15;;;0.57;;
75548;SDS011;64133;56.002;37.208;2023-01-28T01:29:36;1.22;;;0.60;;
75548;SDS011;64133;56.002;37.208;2023-01-28T01:34:41;2.47;;;1.15;;
75548;SDS011;64133;56.002;37.208;2023-01-28T01:39:46;1.57;;;0.90;;
75548;SDS011;64133;56.002;37.208;2023-01-28T01:44:58;3.15;;;0.90;;
75548;SDS011;64133;56.002;37.208;2023-01-28T01:50:05;2.70;;;1.02;;
75548;SDS011;64133;56.002;37.208;2023-01-28T01:55:08;2.40;;;0.93;;
75548;SDS011;64133;56.002;37.208;2023-01-28T02:00:13;3.08;;;2.20;;
75548;SDS011;64133;56.002;37.208;2023-01-28T02:05:19;2.33;;;1.02;;
75548;SDS011;64133;56.002;37.208;2023-01-28T02:10:23;2.55;;;1.10;;
75548;SDS011;64133;56.002;37.208;2023-01-28T02:15:28;2.70;;;1.98;;
75548;SDS011;64133;56.002;37.208;2023-01-28T02:20:35;2.25;;;0.98;;
75548;SDS011;64133;56.002;37.208;2023-01-28T02:31:27;2.08;;;0.78;;
75548;SDS011;64133;56.002;37.208;2023-01-28T02:36:32;1.82;;;0.88;;
75548;SDS011;64133;56.002;37.208;2023-01-28T02:41:37;3.75;;;1.12;;
75548;SDS011;64133;56.002;37.208;2023-01-28T02:46:41;3.00;;;1.12;;
75548;SDS011;64133;56.002;37.208;2023-01-28T02:52:13;1.90;;;0.70;;
75548;SDS011;64133;56.002;37.208;2023-01-28T02:57:29;2.55;;;1.35;;
75548;SDS011;64133;56.002;37.208;2023-01-28T03:02:34;2.75;;;1.40;;
75548;SDS011;64133;56.002;37.208;2023-01-28T03:07:38;2.40;;;1.32;;
75548;SDS011;64133;56.002;37.208;2023-01-28T03:12:43;2.08;;;0.85;;
75548;SDS011;64133;56.002;37.208;2023-01-28T03:18:07;1.65;;;0.75;;
75548;SDS011;64133;56.002;37.208;2023-01-28T03:28:49;1.60;;;0.72;;
75548;SDS011;64133;56.002;37.208;2023-01-28T03:34:11;2.52;;;1.10;;
75548;SDS011;64133;56.002;37.208;2023-01-28T03:39:34;3.27;;;1.60;;
75548;SDS011;64133;56.002;37.208;2023-01-28T03:44:39;1.70;;;0.80;;
75548;SDS011;64133;56.002;37.208;2023-01-28T03:49:54;2.85;;;0.70;;
75548;SDS011;64133;56.002;37.208;2023-01-28T03:54:58;4.62;;;1.62;;
75548;SDS011;64133;56.002;37.208;2023-01-28T04:00:03;1.57;;;0.75;;
75548;SDS011;64133;56.002;37.208;2023-01-28T04:05:09;2.47;;;1.30;;
75548;SDS011;64133;56.002;37.208;2023-01-28T04:10:15;2.17;;;0.90;;
75548;SDS011;64133;56.002;37.208;2023-01-28T04:15:19;1.60;;;0.72;;
75548;SDS011;64133;56.002;37.208;2023-01-28T04:25:29;4.25;;;2.98;;
75548;SDS011;64133;56.002;37.208;2023-01-28T04:30:34;5.25;;;2.72;;
75548;SDS011;64133;56.002;37.208;2023-01-28T04:40:41;3.83;;;1.92;;
75548;SDS011;64133;56.002;37.208;2023-01-28T04:50:49;4.78;;;2.83;;
75548;SDS011;64133;56.002;37.208;2023-01-28T04:55:54;4.90;;;2.35;;
75548;SDS011;64133;56.002;37.208;2023-01-28T05:00:59;4.62;;;2.15;;
75548;SDS011;64133;56.002;37.208;2023-01-28T05:06:04;3.40;;;1.40;;
75548;SDS011;64133;56.002;37.208;2023-01-28T05:11:09;3.83;;;1.67;;
75548;SDS011;64133;56.002;37.208;2023-01-28T05:21:17;3.83;;;1.70;;
75548;SDS011;64133;56.002;37.208;2023-01-28T05:26:21;4.85;;;2.47;;
75548;SDS011;64133;56.002;37.208;2023-01-28T05:36:29;3.42;;;1.70;;
75548;SDS011;64133;56.002;37.208;2023-01-28T05:46:37;4.25;;;1.80;;
75548;SDS011;64133;56.002;37.208;2023-01-28T05:51:43;5.95;;;2.10;;
75548;SDS011;64133;56.002;37.208;2023-01-28T06:01:50;2.02;;;0.98;;
75548;SDS011;64133;56.002;37.208;2023-01-28T06:06:55;5.97;;;2.58;;
75548;SDS011;64133;56.002;37.208;2023-01-28T06:17:03;5.58;;;2.02;;
75548;SDS011;64133;56.002;37.208;2023-01-28T06:22:08;6.67;;;2.50;;
75548;SDS011;64133;56.002;37.208;2023-01-28T06:27:13;4.33;;;1.80;;
75548;SDS011;64133;56.002;37.208;2023-01-28T06:37:20;2.98;;;1.35;;
75548;SDS011;64133;56.002;37.208;2023-01-28T06:42:25;6.42;;;2.70;;
75548;SDS011;64133;56.002;37.208;2023-01-28T06:52:33;6.62;;;2.20;;
75548;SDS011;64133;56.002;37.208;2023-01-28T06:57:38;5.85;;;2.92;;
75548;SDS011;64133;56.002;37.208;2023-01-28T07:07:46;4.85;;;2.42;;
75548;SDS011;64133;56.002;37.208;2023-01-28T07:12:50;4.17;;;1.05;;
75548;SDS011;64133;56.002;37.208;2023-01-28T07:22:58;9.35;;;3.47;;
75548;SDS011;64133;56.002;37.208;2023-01-28T07:33:06;3.70;;;1.60;;
75548;SDS011;64133;56.002;37.208;2023-01-28T07:43:14;4.33;;;2.58;;
75548;SDS011;64133;56.002;37.208;2023-01-28T07:53:22;3.40;;;1.98;;
75548;SDS011;64133;56.002;37.208;2023-01-28T07:58:27;5.22;;;2.67;;
75548;SDS011;64133;56.002;37.208;2023-01-28T08:08:34;6.85;;;3.30;;
75548;SDS011;64133;56.002;37.208;2023-01-28T08:13:39;5.80;;;2.98;;
75548;SDS011;64133;56.002;37.208;2023-01-28T08:18:44;6.55;;;3.67;;
75548;SDS011;64133;56.002;37.208;2023-01-28T08:28:52;8.95;;;4.08;;
75548;SDS011;64133;56.002;37.208;2023-01-28T08:38:59;6.83;;;3.27;;
75548;SDS011;64133;56.002;37.208;2023-01-28T08:49:07;5.40;;;3.33;;
75548;SDS011;64133;56.002;37.208;2023-01-28T08:59:15;8.35;;;3.30;;
75548;SDS011;64133;56.002;37.208;2023-01-28T09:04:20;6.58;;;3.37;;
75548;SDS011;64133;56.002;37.208;2023-01-28T09:09:25;6.45;;;4.30;;
75548;SDS011;64133;56.002;37.208;2023-01-28T09:14:29;7.58;;;3.95;;
75548;SDS011;64133;56.002;37.208;2023-01-28T09:19:34;7.67;;;3.37;;
75548;SDS011;64133;56.002;37.208;2023-01-28T09:24:39;8.45;;;4.05;;
75548;SDS011;64133;56.002;37.208;2023-01-28T09:29:43;10.35;;;4.45;;
75548;SDS011;64133;56.002;37.208;2023-01-28T09:34:48;9.48;;;5.10;;
75548;SDS011;64133;56.002;37.208;2023-01-28T09:39:53;9.40;;;4.30;;
75548;SDS011;64133;56.002;37.208;2023-01-28T09:45:00;7.35;;;4.15;;
75548;SDS011;64133;56.002;37.208;2023-01-28T09:50:06;7.03;;;4.22;;
75548;SDS011;64133;56.002;37.208;2023-01-28T09:55:14;8.08;;;4.72;;
75548;SDS011;64133;56.002;37.208;2023-01-28T10:00:20;7.78;;;4.03;;
75548;SDS011;64133;56.002;37.208;2023-01-28T10:05:25;8.65;;;4.70;;
75548;SDS011;64133;56.002;37.208;2023-01-28T10:10:31;6.92;;;3.35;;
75548;SDS011;64133;56.002;37.208;2023-01-28T10:15:45;7.47;;;4.50;;
75548;SDS011;64133;56.002;37.208;2023-01-28T10:21:11;8.15;;;3.62;;
75548;SDS011;64133;56.002;37.208;2023-01-28T10:26:19;8.10;;;5.10;;
75548;SDS011;64133;56.002;37.208;2023-01-28T10:31:26;9.75;;;4.92;;
75548;SDS011;64133;56.002;37.208;2023-01-28T10:36:30;9.58;;;5.62;;
75548;SDS011;64133;56.002;37.208;2023-01-28T10:41:35;10.60;;;5.50;;
75548;SDS011;64133;56.002;37.208;2023-01-28T10:46:40;10.08;;;5.50;;
75548;SDS011;64133;56.002;37.208;2023-01-28T10:51:45;8.18;;;4.47;;
75548;SDS011;64133;56.002;37.208;2023-01-28T10:56:51;8.70;;;3.95;;
75548;SDS011;64133;56.002;37.208;2023-01-28T11:01:55;8.05;;;5.28;;
75548;SDS011;64133;56.002;37.208;2023-01-28T11:07:00;7.87;;;5.42;;
75548;SDS011;64133;56.002;37.208;2023-01-28T11:12:11;10.00;;;4.78;;
75548;SDS011;64133;56.002;37.208;2023-01-28T11:17:16;8.95;;;4.90;;
75548;SDS011;64133;56.002;37.208;2023-01-28T11:22:34;10.72;;;6.33;;
75548;SDS011;64133;56.002;37.208;2023-01-28T11:27:39;10.25;;;5.45;;
75548;SDS011;64133;56.002;37.208;2023-01-28T11:32:44;8.63;;;5.00;;
75548;SDS011;64133;56.002;37.208;2023-01-28T11:37:48;11.65;;;6.40;;
75548;SDS011;64133;56.002;37.208;2023-01-28T11:42:53;10.75;;;5.55;;
75548;SDS011;64133;56.002;37.208;2023-01-28T11:48:04;11.65;;;5.70;;
75548;SDS011;64133;56.002;37.208;2023-01-28T11:53:35;13.28;;;6.30;;
75548;SDS011;64133;56.002;37.208;2023-01-28T11:58:45;13.08;;;7.42;;
75548;SDS011;64133;56.002;37.208;2023-01-28T12:03:58;11.78;;;7.25;;
75548;SDS011;64133;56.002;37.208;2023-01-28T12:09:10;13.38;;;6.87;;
75548;SDS011;64133;56.002;37.208;2023-01-28T12:14:19;15.78;;;6.20;;
75548;SDS011;64133;56.002;37.208;2023-01-28T12:19:27;12.85;;;5.97;;
75548;SDS011;64133;56.002;37.208;2023-01-28T12:29:46;42.33;;;21.30;;
75548;SDS011;64133;56.002;37.208;2023-01-28T12:45:59;13.22;;;8.20;;
75548;SDS011;64133;56.002;37.208;2023-01-28T12:51:05;13.60;;;7.25;;
75548;SDS011;64133;56.002;37.208;2023-01-28T12:56:08;13.25;;;7.78;;
75548;SDS011;64133;56.002;37.208;2023-01-28T13:01:13;17.55;;;8.48;;
75548;SDS011;64133;56.002;37.208;2023-01-28T13:06:20;13.13;;;6.92;;
75548;SDS011;64133;56.002;37.208;2023-01-28T13:11:23;15.98;;;7.37;;
75548;SDS011;64133;56.002;37.208;2023-01-28T13:16:28;15.38;;;7.28;;
75548;SDS011;64133;56.002;37.208;2023-01-28T13:21:34;12.85;;;6.90;;
75548;SDS011;64133;56.002;37.208;2023-01-28T13:26:41;12.73;;;7.00;;
75548;SDS011;64133;56.002;37.208;2023-01-28T13:31:45;11.25;;;6.50;;
75548;SDS011;64133;56.002;37.208;2023-01-28T13:36:50;15.18;;;8.08;;
75548;SDS011;64133;56.002;37.208;2023-01-28T13:41:55;15.48;;;8.10;;
75548;SDS011;64133;56.002;37.208;2023-01-28T13:47:13;13.58;;;8.08;;
75548;SDS011;64133;56.002;37.208;2023-01-28T13:52:04;14.35;;;7.33;;
75548;SDS011;64133;56.002;37.208;2023-01-28T13:57:23;17.25;;;8.25;;
75548;SDS011;64133;56.002;37.208;2023-01-28T14:02:36;17.82;;;9.35;;
75548;SDS011;64133;56.002;37.208;2023-01-28T14:07:48;13.18;;;6.17;;
75548;SDS011;64133;56.002;37.208;2023-01-28T14:13:07;12.68;;;7.22;;
75548;SDS011;64133;56.002;37.208;2023-01-28T14:18:24;13.85;;;6.58;;
75548;SDS011;64133;56.002;37.208;2023-01-28T14:23:32;12.98;;;6.12;;
75548;SDS011;64133;56.002;37.208;2023-01-28T14:28:38;12.37;;;6.40;;
75548;SDS011;64133;56.002;37.208;2023-01-28T14:33:44;14.63;;;7.60;;
75548;SDS011;64133;56.002;37.208;2023-01-28T14:38:50;14.35;;;6.30;;
75548;SDS011;64133;56.002;37.208;2023-01-28T14:43:56;12.13;;;6.92;;
75548;SDS011;64133;56.002;37.208;2023-01-28T14:49:22;12.85;;;7.40;;
75548;SDS011;64133;56.002;37.208;2023-01-28T14:54:29;20.62;;;7.58;;
75548;SDS011;64133;56.002;37.208;2023-01-28T14:59:36;17.67;;;7.95;;
75548;SDS011;64133;56.002;37.208;2023-01-28T15:04:40;12.93;;;7.25;;
75548;SDS011;64133;56.002;37.208;2023-01-28T15:09:45;15.20;;;6.60;;
75548;SDS011;64133;56.002;37.208;2023-01-28T15:14:49;14.98;;;7.58;;
75548;SDS011;64133;56.002;37.208;2023-01-28T15:19:54;14.47;;;7.17;;
75548;SDS011;64133;56.002;37.208;2023-01-28T15:24:59;15.83;;;7.35;;
75548;SDS011;64133;56.002;37.208;2023-01-28T15:30:16;10.05;;;6.20;;
75548;SDS011;64133;56.002;37.208;2023-01-28T15:35:21;14.53;;;7.37;;
75548;SDS011;64133;56.002;37.208;2023-01-28T15:40:25;10.50;;;5.62;;
75548;SDS011;64133;56.002;37.208;2023-01-28T15:45:30;10.95;;;5.50;;
75548;SDS011;64133;56.002;37.208;2023-01-28T15:50:35;12.03;;;5.30;;
75548;SDS011;64133;56.002;37.208;2023-01-28T15:55:40;8.40;;;5.12;;
75548;SDS011;64133;56.002;37.208;2023-01-28T16:00:44;10.38;;;5.67;;
75548;SDS011;64133;56.002;37.208;2023-01-28T16:05:53;10.58;;;5.25;;
75548;SDS011;64133;56.002;37.208;2023-01-28T16:10:59;13.90;;;7.37;;
75548;SDS011;64133;56.002;37.208;2023-01-28T16:16:04;12.43;;;6.12;;
75548;SDS011;64133;56.002;37.208;2023-01-28T16:21:10;19.50;;;8.65;;
75548;SDS011;64133;56.002;37.208;2023-01-28T16:26:24;17.77;;;7.62;;
75548;SDS011;64133;56.002;37.208;2023-01-28T16:31:28;17.92;;;8.65;;
75548;SDS011;64133;56.002;37.208;2023-01-28T16:36:32;24.18;;;11.68;;
75548;SDS011;64133;56.002;37.208;2023-01-28T16:41:38;21.55;;;10.15;;
75548;SDS011;64133;56.002;37.208;2023-01-28T16:46:42;17.82;;;9.03;;
75548;SDS011;64133;56.002;37.208;2023-01-28T16:51:47;17.95;;;8.68;;
75548;SDS011;64133;56.002;37.208;2023-01-28T16:56:53;22.50;;;11.60;;
75548;SDS011;64133;56.002;37.208;2023-01-28T17:01:59;17.75;;;8.63;;
75548;SDS011;64133;56.002;37.208;2023-01-28T17:07:04;17.90;;;8.43;;
75548;SDS011;64133;56.002;37.208;2023-01-28T17:12:09;20.82;;;8.85;;
75548;SDS011;64133;56.002;37.208;2023-01-28T17:17:15;18.50;;;8.50;;
75548;SDS011;64133;56.002;37.208;2023-01-28T17:22:21;16.75;;;7.45;;
75548;SDS011;64133;56.002;37.208;2023-01-28T17:27:25;19.50;;;8.85;;
75548;SDS011;64133;56.002;37.208;2023-01-28T17:32:30;18.92;;;8.75;;
75548;SDS011;64133;56.002;37.208;2023-01-28T17:37:35;20.20;;;8.98;;
75548;SDS011;64133;56.002;37.208;2023-01-28T17:42:40;17.27;;;9.38;;
75548;SDS011;64133;56.002;37.208;2023-01-28T17:47:44;17.50;;;8.90;;
75548;SDS011;64133;56.002;37.208;2023-01-28T17:52:53;17.77;;;9.28;;
75548;SDS011;64133;56.002;37.208;2023-01-28T17:57:58;14.83;;;8.35;;
75548;SDS011;64133;56.002;37.208;2023-01-28T18:08:06;17.90;;;8.85;;
75548;SDS011;64133;56.002;37.208;2023-01-28T18:13:10;22.77;;;11.10;;
75548;SDS011;64133;56.002;37.208;2023-01-28T18:18:15;20.35;;;10.13;;
75548;SDS011;64133;56.002;37.208;2023-01-28T18:28:23;17.45;;;8.60;;
75548;SDS011;64133;56.002;37.208;2023-01-28T18:33:28;18.52;;;10.30;;
75548;SDS011;64133;56.002;37.208;2023-01-28T18:38:33;20.23;;;9.43;;
75548;SDS011;64133;56.002;37.208;2023-01-28T18:43:40;20.77;;;9.75;;
75548;SDS011;64133;56.002;37.208;2023-01-28T18:53:48;19.00;;;9.55;;
75548;SDS011;64133;56.002;37.208;2023-01-28T19:03:59;22.60;;;9.70;;
75548;SDS011;64133;56.002;37.208;2023-01-28T19:14:08;14.07;;;8.60;;
75548;SDS011;64133;56.002;37.208;2023-01-28T19:24:15;17.23;;;8.88;;
75548;SDS011;64133;56.002;37.208;2023-01-28T19:29:20;16.17;;;7.55;;
75548;SDS011;64133;56.002;37.208;2023-01-28T19:34:25;13.35;;;8.05;;
75548;SDS011;64133;56.002;37.208;2023-01-28T19:39:30;18.87;;;9.18;;
75548;SDS011;64133;56.002;37.208;2023-01-28T19:44:34;15.48;;;8.23;;
75548;SDS011;64133;56.002;37.208;2023-01-28T19:49:39;14.43;;;7.60;;
75548;SDS011;64133;56.002;37.208;2023-01-28T19:54:44;11.75;;;5.87;;
75548;SDS011;64133;56.002;37.208;2023-01-28T19:59:52;14.53;;;6.17;;
75548;SDS011;64133;56.002;37.208;2023-01-28T20:10:00;10.40;;;5.37;;
75548;SDS011;64133;56.002;37.208;2023-01-28T20:15:05;12.43;;;6.00;;
75548;SDS011;64133;56.002;37.208;2023-01-28T20:20:11;10.28;;;5.60;;
75548;SDS011;64133;56.002;37.208;2023-01-28T20:25:16;8.88;;;5.40;;
75548;SDS011;64133;56.002;37.208;2023-01-28T20:30:21;9.95;;;5.03;;
75548;SDS011;64133;56.002;37.208;2023-01-28T20:35:26;9.40;;;4.90;;
75548;SDS011;64133;56.002;37.208;2023-01-28T20:40:31;8.90;;;5.37;;
75548;SDS011;64133;56.002;37.208;2023-01-28T20:45:35;8.30;;;4.70;;
75548;SDS011;64133;56.002;37.208;2023-01-28T20:50:40;7.92;;;5.17;;
75548;SDS011;64133;56.002;37.208;2023-01-28T20:55:45;8.73;;;5.55;;
75548;SDS011;64133;56.002;37.208;2023-01-28T21:00:58;9.80;;;5.37;;
75548;SDS011;64133;56.002;37.208;2023-01-28T21:06:03;11.40;;;6.30;;
75548;SDS011;64133;56.002;37.208;2023-01-28T21:11:08;9.93;;;5.40;;
75548;SDS011;64133;56.002;37.208;2023-01-28T21:16:12;10.80;;;5.55;;
75548;SDS011;64133;56.002;37.208;2023-01-28T21:21:18;11.10;;;6.42;;
75548;SDS011;64133;56.002;37.208;2023-01-28T21:26:22;9.75;;;6.53;;
75548;SDS011;64133;56.002;37.208;2023-01-28T21:31:26;11.28;;;5.90;;
75548;SDS011;64133;56.002;37.208;2023-01-28T21:36:31;13.08;;;6.35;;
75548;SDS011;64133;56.002;37.208;2023-01-28T21:41:36;12.20;;;6.90;;
75548;SDS011;64133;56.002;37.208;2023-01-28T21:46:40;11.50;;;6.62;;
75548;SDS011;64133;56.002;37.208;2023-01-28T21:51:45;11.60;;;6.47;;
75548;SDS011;64133;56.002;37.208;2023-01-28T21:56:50;12.88;;;7.37;;
75548;SDS011;64133;56.002;37.208;2023-01-28T22:01:55;11.12;;;6.30;;
75548;SDS011;64133;56.002;37.208;2023-01-28T22:07:00;13.85;;;7.35;;
75548;SDS011;64133;56.002;37.208;2023-01-28T22:12:05;9.73;;;6.22;;
75548;SDS011;64133;56.002;37.208;2023-01-28T22:17:10;8.78;;;5.42;;
75548;SDS011;64133;56.002;37.208;2023-01-28T22:22:15;13.62;;;7.55;;
75548;SDS011;64133;56.002;37.208;2023-01-28T22:27:19;15.85;;;7.40;;
75548;SDS011;64133;56.002;37.208;2023-01-28T22:32:24;13.83;;;6.97;;
75548;SDS011;64133;56.002;37.208;2023-01-28T22:37:28;18.85;;;9.58;;
75548;SDS011;64133;56.002;37.208;2023-01-28T22:42:33;13.45;;;7.12;;
75548;SDS011;64133;56.002;37.208;2023-01-28T22:47:38;12.60;;;5.97;;
75548;SDS011;64133;56.002;37.208;2023-01-28T22:52:42;10.80;;;5.97;;
75548;SDS011;64133;56.002;37.208;2023-01-28T22:57:47;11.15;;;5.75;;
75548;SDS011;64133;56.002;37.208;2023-01-28T23:02:52;9.73;;;5.47;;
75548;SDS011;64133;56.002;37.208;2023-01-28T23:07:56;11.35;;;6.00;;
75548;SDS011;64133;56.002;37.208;2023-01-28T23:13:01;8.33;;;5.10;;
75548;SDS011;64133;56.002;37.208;2023-01-28T23:18:07;8.90;;;4.55;;
75548;SDS011;64133;56.002;37.208;2023-01-28T23:29:07;7.67;;;3.25;;
75548;SDS011;64133;56.002;37.208;2023-01-28T23:39:15;7.83;;;2.83;;
75548;SDS011;64133;56.002;37.208;2023-01-28T23:49:26;7.20;;;2.90;;
75548;SDS011;64133;56.002;37.208;2023-01-28T23:54:30;5.97;;;2.75;;
75548;SDS011;64133;56.002;37.208;2023-01-28T23:59:35;5.55;;;2.77;;
